createdAt,value
2023-05-06T00:05:30.964Z,12.50
2023-05-06T00:12:31.678Z,12.50
2023-05-06T00:19:32.264Z,12.50
2023-05-06T00:26:32.367Z,12.50
2023-05-06T00:33:32.817Z,12.50
2023-05-06T00:40:33.391Z,12.40
2023-05-06T00:47:33.919Z,12.40
2023-05-06T00:54:34.640Z,12.30
2023-05-06T01:01:34.980Z,12.30
2023-05-06T01:08:44.158Z,12.20
2023-05-06T01:15:52.419Z,12.00
2023-05-06T01:22:53.663Z,12.00
2023-05-06T01:29:54.160Z,11.80
2023-05-06T01:37:14.548Z,11.70
2023-05-06T01:44:16.183Z,11.60
2023-05-06T01:51:16.424Z,11.50
2023-05-06T01:58:16.801Z,11.40
2023-05-06T02:05:17.365Z,11.40
2023-05-06T02:12:22.319Z,11.40
2023-05-06T02:19:22.786Z,11.40
2023-05-06T02:26:23.308Z,11.40
2023-05-06T02:33:23.893Z,11.30
2023-05-06T02:40:23.960Z,11.30
2023-05-06T02:47:24.466Z,11.20
2023-05-06T02:54:27.101Z,11.10
2023-05-06T03:01:27.337Z,11.00
2023-05-06T03:08:27.886Z,11.00
2023-05-06T03:15:29.324Z,10.90
2023-05-06T03:22:29.673Z,10.70
2023-05-06T03:29:31.208Z,10.70
2023-05-06T03:36:33.090Z,10.60
2023-05-06T03:43:33.938Z,10.60
2023-05-06T03:50:36.567Z,10.50
2023-05-06T03:57:36.862Z,10.40
2023-05-06T04:04:38.955Z,10.30
2023-05-06T04:11:39.550Z,10.20
2023-05-06T04:18:43.947Z,10.20
2023-05-06T04:25:50.479Z,10.20
2023-05-06T04:32:53.455Z,10.20
2023-05-06T04:39:54.406Z,10.20
2023-05-06T04:46:55.492Z,10.20
2023-05-06T04:53:55.998Z,10.20
2023-05-06T05:00:57.937Z,10.20
2023-05-06T05:07:58.284Z,10.20
2023-05-06T05:15:01.341Z,10.30
2023-05-06T05:22:02.141Z,10.40
2023-05-06T05:29:04.118Z,10.40
2023-05-06T05:36:06.254Z,10.50
2023-05-06T05:43:07.939Z,10.60
2023-05-06T05:50:12.439Z,10.70
2023-05-06T05:57:13.823Z,10.90
2023-05-06T06:04:15.833Z,11.10
2023-05-06T06:11:16.772Z,11.30
2023-05-06T06:18:18.272Z,11.60
2023-05-06T06:25:18.535Z,11.80
2023-05-06T06:32:19.604Z,12.10
2023-05-06T06:39:20.219Z,12.30
2023-05-06T06:46:20.809Z,12.50
2023-05-06T06:53:21.254Z,12.80
2023-05-06T07:00:21.718Z,13.00
2023-05-06T07:07:22.125Z,13.30
2023-05-06T07:14:22.667Z,13.40
2023-05-06T07:21:23.061Z,13.60
2023-05-06T07:28:23.365Z,13.90
2023-05-06T07:35:23.741Z,14.10
2023-05-06T07:42:24.177Z,14.30
2023-05-06T07:49:25.344Z,14.60
2023-05-06T07:56:25.656Z,14.90
2023-05-06T08:03:26.361Z,15.10
2023-05-06T08:10:27.340Z,15.40
2023-05-06T08:17:27.876Z,15.70
2023-05-06T08:24:28.557Z,16.00
2023-05-06T08:31:28.967Z,16.20
2023-05-06T08:38:29.002Z,16.30
2023-05-06T08:45:29.735Z,16.50
2023-05-06T08:52:31.392Z,16.80
2023-05-06T08:59:32.814Z,17.10
2023-05-06T09:06:34.183Z,17.30
2023-05-06T09:13:34.511Z,17.60
2023-05-06T09:20:35.427Z,17.60
2023-05-06T09:27:36.692Z,17.80
2023-05-06T09:34:36.933Z,18.00
2023-05-06T09:41:37.714Z,18.00
2023-05-06T09:48:39.327Z,18.10
2023-05-06T09:55:40.276Z,18.00
2023-05-06T10:02:41.648Z,18.00
2023-05-06T10:09:42.520Z,18.10
2023-05-06T10:16:43.281Z,18.30
2023-05-06T10:23:52.079Z,18.40
2023-05-06T10:30:54.336Z,18.60
2023-05-06T10:37:56.604Z,18.80
2023-05-06T10:45:05.804Z,18.90
2023-05-06T10:52:13.737Z,19.00
2023-05-06T10:59:14.470Z,19.20
2023-05-06T11:06:50.787Z,19.40
2023-05-06T11:13:53.336Z,19.60
2023-05-06T11:21:03.055Z,19.70
2023-05-06T11:28:11.077Z,20.00
2023-05-06T11:35:12.043Z,20.40
2023-05-06T11:42:12.350Z,20.80
2023-05-06T11:49:16.027Z,20.90
2023-05-06T11:56:16.613Z,21.00
2023-05-06T12:03:17.504Z,21.10
2023-05-06T12:10:18.517Z,21.30
2023-05-06T12:17:19.732Z,21.60
2023-05-06T12:24:32.440Z,22.10
2023-05-06T12:31:32.621Z,22.50
2023-05-06T12:38:33.093Z,23.00
2023-05-06T12:45:33.958Z,23.30
2023-05-06T12:52:44.042Z,23.40
2023-05-06T12:59:48.223Z,23.40
2023-05-06T13:06:49.295Z,23.70
2023-05-06T13:13:49.842Z,24.00
2023-05-06T13:20:51.695Z,23.70
2023-05-06T13:27:52.976Z,23.10
2023-05-06T13:34:53.179Z,22.90
2023-05-06T13:41:54.093Z,22.70
2023-05-06T13:48:54.508Z,22.20
2023-05-06T13:55:54.873Z,21.90
2023-05-06T14:02:55.579Z,21.90
2023-05-06T14:09:55.779Z,21.80
2023-05-06T14:16:56.224Z,21.70
2023-05-06T14:23:56.816Z,21.60
2023-05-06T14:30:58.018Z,21.30
2023-05-06T14:37:58.340Z,19.90
2023-05-06T14:44:58.976Z,18.70
2023-05-06T14:51:59.272Z,17.90
2023-05-06T14:59:00.780Z,17.30
2023-05-06T15:06:02.920Z,17.00
2023-05-06T15:13:03.533Z,17.00
2023-05-06T15:20:04.464Z,17.20
2023-05-06T15:27:05.239Z,17.20
2023-05-06T15:34:10.551Z,17.30
2023-05-06T15:41:11.201Z,17.20
2023-05-06T15:48:11.758Z,17.20
2023-05-06T15:55:13.590Z,17.30
2023-05-06T16:02:26.838Z,17.20
2023-05-06T16:09:28.106Z,17.10
2023-05-06T16:16:28.553Z,17.20
2023-05-06T16:23:28.996Z,17.20
2023-05-06T16:30:29.315Z,17.30
2023-05-06T16:37:29.893Z,17.40
2023-05-06T16:44:30.425Z,17.70
2023-05-06T16:51:31.431Z,17.90
2023-05-06T16:58:32.228Z,18.10
2023-05-06T17:05:32.386Z,18.00
2023-05-06T17:12:32.918Z,17.90
2023-05-06T17:19:33.548Z,17.90
2023-05-06T17:26:35.045Z,17.90
2023-05-06T17:33:35.389Z,17.80
2023-05-06T17:40:36.020Z,17.70
2023-05-06T17:47:36.562Z,17.50
2023-05-06T17:54:38.080Z,17.40
2023-05-06T18:01:38.274Z,17.30
2023-05-06T18:08:38.688Z,17.20
2023-05-06T18:15:39.011Z,17.20
2023-05-06T18:22:39.639Z,17.10
2023-05-06T18:29:41.214Z,17.00
2023-05-06T18:36:41.397Z,17.00
2023-05-06T18:43:41.732Z,16.90
2023-05-06T18:50:42.060Z,16.90
2023-05-06T18:57:42.545Z,16.80
2023-05-06T19:04:43.944Z,16.80
2023-05-06T19:11:44.415Z,16.70
2023-05-06T19:18:44.980Z,16.70
2023-05-06T19:25:45.904Z,16.60
2023-05-06T19:32:46.449Z,16.60
2023-05-06T19:39:47.529Z,16.50
2023-05-06T19:46:52.120Z,16.40
2023-05-06T19:53:52.648Z,16.40
2023-05-06T20:00:53.124Z,16.30
2023-05-06T20:07:55.321Z,16.30
2023-05-06T20:14:56.384Z,16.30
2023-05-06T20:21:57.645Z,16.20
2023-05-06T20:28:58.010Z,16.20
2023-05-06T20:35:58.232Z,16.20
2023-05-06T20:42:58.471Z,16.20
2023-05-06T20:49:58.770Z,16.20
2023-05-06T20:56:59.103Z,16.10
2023-05-06T21:04:01.273Z,16.00
2023-05-06T21:11:01.640Z,15.90
2023-05-06T21:18:02.178Z,15.90
2023-05-06T21:25:02.733Z,15.80
2023-05-06T21:32:03.152Z,15.80
2023-05-06T21:39:10.777Z,15.80
2023-05-06T21:46:10.939Z,15.70
2023-05-06T21:53:11.468Z,15.70
2023-05-06T22:00:12.647Z,15.60
2023-05-06T22:07:13.031Z,15.60
2023-05-06T22:14:14.854Z,15.40
2023-05-06T22:21:14.992Z,15.40
2023-05-06T22:28:15.444Z,15.30
2023-05-06T22:35:16.775Z,15.30
2023-05-06T22:42:17.608Z,15.20
2023-05-06T22:49:19.358Z,15.20
2023-05-06T22:56:20.083Z,15.20
2023-05-06T23:03:22.415Z,15.00
2023-05-06T23:10:23.207Z,15.00
2023-05-06T23:17:24.390Z,15.00
2023-05-06T23:24:24.449Z,15.00
2023-05-06T23:31:24.788Z,14.90
2023-05-06T23:38:25.222Z,14.90
2023-05-06T23:45:26.684Z,14.90
2023-05-06T23:52:27.239Z,14.90
2023-05-06T23:59:29.763Z,14.90
